Flight Track Log - Related Links

Times and Time Zones

All times are in EDT time to prevent confusion due to time zone crossing. See the GLA25F flight status page for this flight to view local times or setup timezone preferences in your user account.

Time Position Orientation Groundspeed Altitude Reporting Facility
EDT Latitude Longitude Course Direction KTS MPH feet Rate Location/Type
Fri 12:17:12 PM 34.3619 -110.1511 275° West 204 235 12,000  Level Albuquerque Center
Fri 12:18:13 PM 34.3689 -110.2117 278° West 208 239 13,500 1,452 Climbing Albuquerque Center
Fri 12:19:16 PM 34.3797 -110.2867 280° West 202 232 15,000 1,210 Climbing Albuquerque Center
Fri 12:20:17 PM 34.3942 -110.3600 283° West 200 230 16,000 484 Climbing Albuquerque Center
Fri 12:21:00 PM 34.3694 -110.3178 264° West  Level FlightAware Approximate
Fri 12:21:20 PM 34.3978 -110.4253 274° West 201 231 16,000  Level Albuquerque Center
Fri 12:22:21 PM 34.3822 -110.4911 254° West 212 244 15,900  Descending Albuquerque Center
Fri 12:23:22 PM 34.3461 -110.5508 234° Southwest 219 252 16,000 49 Climbing Albuquerque Center
Fri 12:24:23 PM 34.3106 -110.6108 234° Southwest 219 252 16,000 -48 Level Albuquerque Center
Fri 12:25:27 PM 34.2744 -110.6708 234° Southwest 220 253 15,900 -48 Descending Albuquerque Center
Fri 12:26:27 PM 34.2261 -110.7408 230° Southwest 225 259 15,900  Level Albuquerque Center
Fri 12:27:32 PM 34.1917 -110.8006 235° Southwest 220 253 15,900 -48 Level Albuquerque Center
Fri 12:28:32 PM 34.1561 -110.8594 234° Southwest 217 250 15,800 -484 Descending Albuquerque Center
Fri 12:29:36 PM 34.1247 -110.9231 239° Southwest 220 253 14,900 -1,016 Descending Albuquerque Center
Fri 12:30:36 PM 34.0986 -110.9883 244° Southwest 217 250 13,700 -1,140 Descending Albuquerque Center
Fri 12:31:37 PM 34.0722 -111.0525 244° Southwest 216 249 12,600 -1,210 Descending Albuquerque Center
Fri 12:32:40 PM 34.0408 -111.1356 246° West 221 254 11,200 -726 Descending Albuquerque Center
Fri 12:33:41 PM 34.0100 -111.2117 244° Southwest 235 270 11,100 -98 Descending Albuquerque Center
Fri 12:34:43 PM 33.9756 -111.2900 242° Southwest 254 292 11,000  Descending Albuquerque Center
Fri 12:35:45 PM 33.9344 -111.3642 236° Southwest 264 304 11,100 -286 Climbing Albuquerque Center
Fri 12:36:49 PM 33.8917 -111.4339 234° Southwest 258 297 10,400 -476 Descending Albuquerque Center
Fri 12:37:51 PM 33.8414 -111.4922 224° Southwest 252 290 10,100 -148 Descending Albuquerque Center
Fri 12:38:51 PM 33.8011 -111.5614 235° Southwest 252 290 10,100  Level Albuquerque Center
Fri 12:39:53 PM 33.7500 -111.6431 233° Southwest 254 292 10,100 -48 Level Albuquerque Center
Fri 12:40:55 PM 33.7081 -111.7108 233° Southwest 252 290 10,000  Descending Albuquerque Center
Fri 12:41:59 PM 33.6647 -111.7767 232° Southwest 251 289 10,100 48 Climbing Albuquerque Center
Fri 12:43:00 PM 33.6217 -111.8436 232° Southwest 252 290 10,100 -69 Level Albuquerque Center
Fri 12:43:26 PM 33.6000 -111.8833 237° Southwest 252 290 10,000 -621 Descending Phoenix TRACON
Fri 12:44:27 PM 33.5500 -111.9500 228° Southwest 248 285 9,200 -1,148 Descending Phoenix TRACON
Fri 12:45:21 PM 33.5333 -112.0167 253° West 252 290 7,800 -1,368 Descending Phoenix TRACON
Fri 12:46:21 PM 33.5167 -112.1000 257° West 240 276 6,600 -1,132 Descending Phoenix TRACON
Fri 12:47:07 PM 33.5089 -112.1367 256° West 240 276 5,800 -1,745 Descending Albuquerque Center
Fri 12:48:11 PM 33.4419 -112.1608 197° South 236 272 3,400 -1,619 Descending Albuquerque Center
Fri 12:49:13 PM 33.4286 -112.0950 104° East 194 223 2,400 -934 Descending Albuquerque Center
Fri 12:50:13 PM 33.4292 -112.0442 89° East 165 190 1,500 -576 Descending Albuquerque Center
Fri 12:51:18 PM 33.4286 -112.0103 91° East 94 108 1,200 -277 Descending Albuquerque Center

Login

Don't have an account? Register now (free) for customized features, flight alerts, and more!